createdAt,value
2018-09-02T00:01:50.364Z,17.19
2018-09-02T00:04:19.690Z,17.22
2018-09-02T00:06:49.094Z,17.05
2018-09-02T00:09:19.217Z,17.06
2018-09-02T00:11:48.563Z,17.16
2018-09-02T00:14:17.946Z,17.18
2018-09-02T00:16:47.471Z,17.07
2018-09-02T00:19:18.063Z,17.17
2018-09-02T00:21:47.549Z,17.09
2018-09-02T00:24:16.952Z,16.96
2018-09-02T00:26:46.355Z,17.09
2018-09-02T00:29:15.870Z,17.03
2018-09-02T00:31:45.809Z,16.91
2018-09-02T00:34:15.222Z,16.90
2018-09-02T00:36:44.540Z,16.85
2018-09-02T00:39:13.937Z,16.77
2018-09-02T00:41:43.503Z,16.73
2018-09-02T00:44:12.918Z,16.71
2018-09-02T00:46:42.500Z,16.83
2018-09-02T00:49:11.857Z,16.75
2018-09-02T00:51:41.298Z,16.82
2018-09-02T00:54:11.024Z,16.83
2018-09-02T00:56:40.794Z,16.78
2018-09-02T00:59:10.287Z,16.72
2018-09-02T01:01:39.698Z,16.79
2018-09-02T01:04:09.540Z,16.88
2018-09-02T01:06:38.951Z,16.85
2018-09-02T01:09:09.010Z,16.63
2018-09-02T01:11:38.534Z,16.67
2018-09-02T01:14:08.489Z,16.58
2018-09-02T01:16:37.999Z,16.61
2018-09-02T01:19:07.543Z,16.64
2018-09-02T01:21:37.066Z,16.60
2018-09-02T01:24:06.511Z,16.58
2018-09-02T01:26:35.872Z,16.68
2018-09-02T01:29:05.275Z,16.66
2018-09-02T01:31:34.764Z,16.68
2018-09-02T01:34:04.434Z,16.60
2018-09-02T01:36:33.811Z,16.52
2018-09-02T01:39:03.329Z,16.49
2018-09-02T01:41:32.727Z,16.36
2018-09-02T01:44:02.174Z,16.10
2018-09-02T01:46:31.594Z,16.11
2018-09-02T01:49:00.989Z,15.90
2018-09-02T01:51:30.366Z,15.95
2018-09-02T01:53:59.735Z,15.95
2018-09-02T01:56:29.277Z,15.82
2018-09-02T01:58:58.659Z,15.76
2018-09-02T02:01:28.487Z,15.68
2018-09-02T02:03:57.827Z,15.74
2018-09-02T02:06:27.403Z,15.67
2018-09-02T02:08:57.008Z,15.67
2018-09-02T02:11:26.370Z,15.38
2018-09-02T02:13:55.778Z,15.26
2018-09-02T02:16:25.248Z,15.04
2018-09-02T02:18:54.650Z,15.07
2018-09-02T02:21:24.150Z,15.05
2018-09-02T02:23:53.823Z,15.22
2018-09-02T02:26:23.301Z,15.18
2018-09-02T02:28:52.821Z,15.12
2018-09-02T02:31:22.168Z,14.96
2018-09-02T02:33:51.620Z,14.89
2018-09-02T02:36:21.081Z,15.04
2018-09-02T02:38:50.588Z,14.93
2018-09-02T02:41:20.155Z,14.73
2018-09-02T02:43:49.528Z,14.67
2018-09-02T02:46:19.104Z,14.64
2018-09-02T02:48:48.362Z,14.83
2018-09-02T02:51:17.787Z,14.83
2018-09-02T02:53:47.334Z,14.77
2018-09-02T02:56:16.669Z,14.75
2018-09-02T02:58:46.146Z,14.83
2018-09-02T03:01:15.545Z,14.91
2018-09-02T03:03:44.946Z,14.89
2018-09-02T03:06:14.349Z,14.93
2018-09-02T03:08:43.977Z,14.70
2018-09-02T03:11:13.384Z,14.94
2018-09-02T03:13:42.833Z,15.12
2018-09-02T03:16:12.312Z,15.17
2018-09-02T03:18:41.773Z,15.18
2018-09-02T03:21:11.257Z,15.06
2018-09-02T03:23:40.688Z,15.06
2018-09-02T03:26:10.127Z,15.09
2018-09-02T03:28:39.733Z,15.16
2018-09-02T03:31:09.650Z,15.19
2018-09-02T03:33:39.141Z,15.18
2018-09-02T03:36:08.544Z,15.10
2018-09-02T03:38:37.979Z,15.06
2018-09-02T03:41:08.098Z,14.98
2018-09-02T03:43:37.551Z,14.94
2018-09-02T03:46:06.974Z,14.94
2018-09-02T03:48:36.378Z,14.88
2018-09-02T03:51:05.711Z,14.94
2018-09-02T03:53:35.449Z,14.89
2018-09-02T03:56:05.007Z,14.93
2018-09-02T03:58:34.581Z,14.86
2018-09-02T04:01:04.106Z,14.82
2018-09-02T04:03:33.519Z,14.80
2018-09-02T04:06:03.104Z,14.82
2018-09-02T04:08:32.527Z,14.92
2018-09-02T04:11:02.161Z,14.94
2018-09-02T04:13:31.626Z,14.93
2018-09-02T04:16:01.339Z,14.91
2018-09-02T04:18:30.728Z,14.72
2018-09-02T04:21:00.162Z,14.69
2018-09-02T04:23:29.648Z,14.82
2018-09-02T04:25:59.038Z,14.87
2018-09-02T04:28:28.389Z,14.68
2018-09-02T04:30:57.790Z,14.66
2018-09-02T04:33:27.187Z,14.68
2018-09-02T04:35:56.899Z,14.68
2018-09-02T04:38:26.534Z,14.66
2018-09-02T04:40:55.939Z,14.75
2018-09-02T04:43:25.316Z,14.79
2018-09-02T04:45:54.855Z,14.67
2018-09-02T04:48:24.247Z,14.77
2018-09-02T04:50:53.608Z,14.73
2018-09-02T04:53:23.015Z,14.74
2018-09-02T04:55:52.421Z,14.88
2018-09-02T04:58:21.819Z,14.83
2018-09-02T05:00:51.531Z,14.76
2018-09-02T05:03:21.174Z,14.83
2018-09-02T05:05:50.627Z,14.85
2018-09-02T05:08:20.083Z,14.88
2018-09-02T05:10:49.527Z,14.78
2018-09-02T05:13:19.127Z,14.72
2018-09-02T05:15:48.522Z,14.67
2018-09-02T05:18:18.040Z,14.87
2018-09-02T05:20:47.409Z,15.09
2018-09-02T05:23:17.111Z,15.23
2018-09-02T05:25:46.568Z,15.16
2018-09-02T05:28:15.911Z,15.17
2018-09-02T05:30:45.326Z,15.21
2018-09-02T05:33:14.679Z,15.40
2018-09-02T05:35:44.102Z,15.53
2018-09-02T05:38:13.538Z,15.56
2018-09-02T05:40:42.956Z,15.60
2018-09-02T05:43:12.432Z,15.87
2018-09-02T05:45:41.884Z,15.95
2018-09-02T05:48:11.230Z,15.90
2018-09-02T05:50:40.720Z,16.01
2018-09-02T05:53:10.133Z,16.10
2018-09-02T05:55:39.449Z,16.25
2018-09-02T05:58:08.799Z,16.34
2018-09-02T06:00:38.201Z,16.44
2018-09-02T06:03:07.671Z,16.59
2018-09-02T06:05:37.011Z,16.65
2018-09-02T06:08:06.687Z,16.75
2018-09-02T06:10:36.051Z,16.86
2018-09-02T06:13:05.565Z,17.02
2018-09-02T06:15:34.958Z,17.03
2018-09-02T06:18:04.383Z,17.17
2018-09-02T06:20:33.797Z,17.34
2018-09-02T06:23:03.227Z,17.47
2018-09-02T06:25:32.638Z,17.50
2018-09-02T06:28:02.100Z,17.57
2018-09-02T06:30:31.805Z,17.64
2018-09-02T06:33:01.504Z,17.67
2018-09-02T06:35:31.381Z,17.77
2018-09-02T06:38:00.787Z,17.95
2018-09-02T06:40:30.187Z,17.95
2018-09-02T06:42:59.623Z,18.30
2018-09-02T06:45:29.039Z,18.46
2018-09-02T06:47:58.364Z,18.46
2018-09-02T06:50:27.699Z,18.48
2018-09-02T06:52:57.862Z,18.74
2018-09-02T06:55:27.146Z,18.71
2018-09-02T06:57:56.491Z,18.71
2018-09-02T07:00:25.939Z,18.98
2018-09-02T07:02:55.381Z,19.19
2018-09-02T07:05:25.111Z,19.44
2018-09-02T07:07:54.483Z,19.67
2018-09-02T07:10:23.919Z,19.64
2018-09-02T07:12:53.287Z,19.84
2018-09-02T07:15:22.759Z,19.94
2018-09-02T07:17:52.276Z,20.17
2018-09-02T07:20:21.886Z,20.33
2018-09-02T07:22:51.337Z,20.62
2018-09-02T07:25:20.758Z,20.94
2018-09-02T07:27:50.047Z,21.40
2018-09-02T07:30:19.458Z,21.80
2018-09-02T07:32:49.092Z,21.99
2018-09-02T07:35:18.503Z,22.44
2018-09-02T07:37:48.350Z,22.79
2018-09-02T07:40:17.944Z,23.10
2018-09-02T07:42:47.470Z,23.25
2018-09-02T07:45:17.940Z,23.87
2018-09-02T07:47:47.463Z,24.38
2018-09-02T07:50:17.418Z,24.59
2018-09-02T07:52:47.130Z,24.85
2018-09-02T07:55:16.551Z,25.29
2018-09-02T07:57:46.079Z,25.70
2018-09-02T08:00:15.548Z,25.37
2018-09-02T08:02:45.311Z,25.90
2018-09-02T08:05:14.666Z,26.28
2018-09-02T08:07:44.051Z,26.60
2018-09-02T08:10:13.510Z,26.92
2018-09-02T08:12:43.306Z,27.88
2018-09-02T08:15:12.634Z,28.27
2018-09-02T08:17:42.025Z,28.86
2018-09-02T08:20:11.784Z,29.17
2018-09-02T08:22:44.098Z,29.50
2018-09-02T08:25:13.853Z,30.14
2018-09-02T08:27:43.323Z,29.94
2018-09-02T08:30:13.810Z,30.81
2018-09-02T08:32:43.372Z,30.55
2018-09-02T08:35:12.967Z,30.80
2018-09-02T08:37:42.557Z,31.08
2018-09-02T08:40:12.101Z,31.49
2018-09-02T08:42:41.670Z,31.73
2018-09-02T08:45:11.310Z,32.01
2018-09-02T08:47:40.686Z,33.10
2018-09-02T08:50:10.163Z,32.74
2018-09-02T08:52:39.567Z,33.62
2018-09-02T08:55:09.026Z,33.20
2018-09-02T08:57:38.522Z,33.63
2018-09-02T09:00:09.112Z,34.03
2018-09-02T09:02:38.540Z,34.23
2018-09-02T09:05:07.924Z,33.25
2018-09-02T09:07:37.836Z,32.97
2018-09-02T09:10:07.786Z,32.33
2018-09-02T09:12:37.492Z,32.30
2018-09-02T09:15:07.034Z,33.77
2018-09-02T09:17:36.607Z,34.40
2018-09-02T09:20:06.386Z,35.07
2018-09-02T09:22:36.467Z,35.93
2018-09-02T09:25:10.976Z,35.20
2018-09-02T09:27:41.534Z,33.45
2018-09-02T09:30:11.215Z,33.49
2018-09-02T09:32:40.743Z,33.96
2018-09-02T09:35:10.571Z,35.42
2018-09-02T09:37:39.995Z,36.06
2018-09-02T09:40:09.499Z,33.46
2018-09-02T09:42:39.019Z,31.40
2018-09-02T09:45:08.551Z,33.38
2018-09-02T09:47:37.944Z,33.74
2018-09-02T09:50:07.833Z,32.63
2018-09-02T09:52:37.680Z,34.72
2018-09-02T09:55:07.187Z,36.49
2018-09-02T09:57:36.863Z,35.86
2018-09-02T10:00:06.427Z,35.50
2018-09-02T10:02:35.861Z,35.50
2018-09-02T10:05:05.229Z,35.46
2018-09-02T10:07:34.705Z,35.72
2018-09-02T10:10:04.151Z,36.82
2018-09-02T10:12:33.689Z,38.43
2018-09-02T10:15:03.146Z,37.32
2018-09-02T10:17:32.691Z,38.40
2018-09-02T10:20:02.130Z,37.06
2018-09-02T10:22:31.520Z,36.68
2018-09-02T10:25:01.105Z,36.55
2018-09-02T10:27:30.693Z,35.67
2018-09-02T10:30:00.107Z,34.24
2018-09-02T10:32:30.333Z,35.02
2018-09-02T10:34:59.865Z,36.16
2018-09-02T10:37:29.225Z,36.63
2018-09-02T10:39:58.652Z,37.50
2018-09-02T10:42:28.208Z,39.04
2018-09-02T10:44:57.836Z,39.72
2018-09-02T10:47:27.148Z,39.02
2018-09-02T10:49:56.694Z,36.70
2018-09-02T10:52:26.179Z,35.19
2018-09-02T10:54:55.565Z,35.91
2018-09-02T10:57:25.233Z,36.69
2018-09-02T10:59:54.648Z,37.71
2018-09-02T11:02:24.160Z,39.41
2018-09-02T11:04:53.817Z,39.27
2018-09-02T11:07:23.558Z,39.76
2018-09-02T11:09:53.075Z,40.70
2018-09-02T11:12:22.673Z,39.81
2018-09-02T11:14:52.344Z,39.27
2018-09-02T11:17:22.941Z,38.75
2018-09-02T11:19:52.645Z,37.94
2018-09-02T11:22:22.048Z,38.99
2018-09-02T11:24:51.397Z,38.59
2018-09-02T11:27:20.799Z,38.70
2018-09-02T11:29:50.261Z,39.89
2018-09-02T11:32:19.701Z,39.80
2018-09-02T11:34:49.227Z,39.35
2018-09-02T11:37:18.677Z,39.49
2018-09-02T11:39:48.303Z,38.94
2018-09-02T11:42:17.913Z,39.04
2018-09-02T11:44:47.722Z,38.81
2018-09-02T11:47:17.300Z,37.68
2018-09-02T11:49:46.934Z,34.51
2018-09-02T11:52:16.515Z,32.96
2018-09-02T11:54:46.068Z,35.66
2018-09-02T11:57:15.825Z,37.91
2018-09-02T11:59:45.446Z,38.38
2018-09-02T12:02:14.919Z,38.82
2018-09-02T12:04:44.371Z,37.30
2018-09-02T12:07:13.769Z,36.04
2018-09-02T12:09:43.160Z,37.08
2018-09-02T12:12:12.659Z,38.15
2018-09-02T12:14:42.122Z,37.13
2018-09-02T12:17:11.560Z,38.19
2018-09-02T12:19:41.228Z,39.66
2018-09-02T12:22:10.664Z,38.74
2018-09-02T12:24:40.160Z,37.58
2018-09-02T12:27:10.202Z,36.80
2018-09-02T12:29:39.599Z,37.25
2018-09-02T12:32:09.565Z,38.19
2018-09-02T12:34:39.124Z,38.35
2018-09-02T12:37:08.601Z,37.31
2018-09-02T12:39:38.101Z,35.73
2018-09-02T12:42:07.742Z,35.72
2018-09-02T12:44:37.166Z,34.64
2018-09-02T12:47:06.603Z,34.44
2018-09-02T12:49:36.229Z,35.92
2018-09-02T12:52:05.666Z,35.23
2018-09-02T12:54:35.222Z,34.03
2018-09-02T12:57:04.746Z,34.45
2018-09-02T12:59:34.319Z,33.84
2018-09-02T13:02:04.087Z,34.19
2018-09-02T13:04:33.512Z,35.20
2018-09-02T13:07:02.915Z,36.41
2018-09-02T13:09:32.411Z,36.89
2018-09-02T13:12:01.843Z,36.09
2018-09-02T13:14:31.556Z,35.43
2018-09-02T13:17:01.090Z,35.42
2018-09-02T13:19:30.672Z,34.33
2018-09-02T13:22:00.226Z,34.24
2018-09-02T13:24:29.846Z,35.01
2018-09-02T13:27:01.212Z,34.33
2018-09-02T13:29:30.748Z,33.07
2018-09-02T13:32:00.298Z,32.73
2018-09-02T13:34:30.230Z,32.32
2018-09-02T13:36:59.644Z,31.98
2018-09-02T13:39:29.069Z,31.45
2018-09-02T13:42:00.447Z,31.89
2018-09-02T13:44:29.880Z,32.27
2018-09-02T13:46:59.354Z,32.32
2018-09-02T13:49:28.782Z,31.89
2018-09-02T13:51:58.298Z,31.46
2018-09-02T13:54:27.706Z,31.23
2018-09-02T13:56:57.378Z,31.25
2018-09-02T13:59:26.779Z,31.23
2018-09-02T14:01:56.286Z,32.09
2018-09-02T14:04:25.824Z,32.81
2018-09-02T14:06:55.529Z,33.28
2018-09-02T14:09:25.051Z,32.88
2018-09-02T14:11:54.559Z,31.92
2018-09-02T14:14:24.070Z,31.04
2018-09-02T14:16:53.854Z,30.58
2018-09-02T14:19:23.689Z,30.63
2018-09-02T14:21:53.113Z,30.79
2018-09-02T14:24:22.576Z,31.21
2018-09-02T14:26:52.002Z,31.15
2018-09-02T14:29:21.529Z,30.77
2018-09-02T14:31:50.991Z,30.83
2018-09-02T14:34:20.390Z,30.59
2018-09-02T14:36:49.822Z,30.54
2018-09-02T14:39:19.286Z,30.58
2018-09-02T14:41:48.947Z,29.96
2018-09-02T14:44:18.447Z,29.44
2018-09-02T14:46:48.094Z,29.46
2018-09-02T14:49:17.573Z,29.77
2018-09-02T14:51:47.025Z,29.62
2018-09-02T14:54:16.407Z,28.94
2018-09-02T14:56:45.873Z,28.52
2018-09-02T14:59:15.292Z,28.61
2018-09-02T15:01:44.693Z,28.83
2018-09-02T15:04:14.650Z,28.71
2018-09-02T15:06:43.980Z,29.30
2018-09-02T15:09:13.441Z,29.46
2018-09-02T15:11:42.802Z,29.65
2018-09-02T15:14:12.220Z,29.81
2018-09-02T15:16:41.658Z,29.58
2018-09-02T15:19:11.025Z,29.76
2018-09-02T15:21:40.444Z,29.71
2018-09-02T15:24:10.034Z,29.65
2018-09-02T15:26:39.841Z,29.10
2018-09-02T15:29:09.257Z,28.97
2018-09-02T15:31:38.831Z,28.91
2018-09-02T15:34:08.401Z,28.62
2018-09-02T15:36:37.801Z,28.48
2018-09-02T15:39:10.691Z,28.20
2018-09-02T15:41:40.731Z,28.06
2018-09-02T15:44:11.556Z,27.78
2018-09-02T15:46:41.104Z,27.48
2018-09-02T15:49:10.658Z,27.27
2018-09-02T15:51:40.144Z,27.32
2018-09-02T15:54:09.826Z,27.46
2018-09-02T15:56:39.311Z,27.56
2018-09-02T15:59:08.993Z,27.47
2018-09-02T16:01:39.288Z,27.32
2018-09-02T16:04:08.940Z,27.54
2018-09-02T16:06:38.667Z,27.48
2018-09-02T16:09:10.662Z,27.65
2018-09-02T16:11:40.287Z,27.33
2018-09-02T16:14:10.093Z,26.98
2018-09-02T16:16:40.059Z,27.07
2018-09-02T16:19:09.489Z,26.83
2018-09-02T16:21:38.950Z,27.07
2018-09-02T16:24:08.324Z,27.11
2018-09-02T16:26:37.946Z,27.17
2018-09-02T16:29:07.405Z,27.13
2018-09-02T16:31:37.153Z,27.18
2018-09-02T16:34:06.795Z,26.94
2018-09-02T16:36:36.306Z,26.63
2018-09-02T16:39:07.379Z,26.53
2018-09-02T16:41:36.830Z,26.69
2018-09-02T16:44:06.726Z,26.81
2018-09-02T16:46:36.404Z,26.68
2018-09-02T16:49:06.338Z,26.16
2018-09-02T16:51:35.866Z,26.18
2018-09-02T16:54:05.537Z,26.32
2018-09-02T16:56:35.017Z,25.99
2018-09-02T16:59:04.355Z,25.94
2018-09-02T17:01:33.770Z,25.92
2018-09-02T17:04:05.673Z,25.61
2018-09-02T17:06:35.270Z,25.69
2018-09-02T17:09:07.419Z,25.66
2018-09-02T17:11:37.135Z,25.73
2018-09-02T17:14:06.524Z,25.58
2018-09-02T17:16:36.004Z,25.45
2018-09-02T17:19:10.653Z,25.43
2018-09-02T17:21:40.230Z,25.71
2018-09-02T17:24:09.701Z,25.53
2018-09-02T17:26:39.249Z,25.58
2018-09-02T17:29:09.151Z,25.30
2018-09-02T17:31:38.564Z,25.39
2018-09-02T17:34:08.189Z,25.22
2018-09-02T17:36:38.338Z,25.17
2018-09-02T17:39:11.365Z,25.25
2018-09-02T17:41:41.175Z,25.38
2018-09-02T17:44:11.511Z,24.89
2018-09-02T17:46:41.297Z,24.88
2018-09-02T17:49:11.440Z,24.69
2018-09-02T17:51:41.080Z,24.85
2018-09-02T17:54:10.809Z,24.78
2018-09-02T17:56:40.165Z,24.79
2018-09-02T17:59:09.619Z,24.80
2018-09-02T18:01:39.124Z,24.71
2018-09-02T18:04:13.037Z,24.75
2018-09-02T18:06:42.541Z,24.55
2018-09-02T18:09:12.790Z,24.49
2018-09-02T18:11:42.257Z,24.61
2018-09-02T18:14:11.835Z,24.35
2018-09-02T18:16:41.368Z,24.24
2018-09-02T18:19:11.064Z,24.25
2018-09-02T18:21:40.522Z,24.47
2018-09-02T18:24:10.155Z,24.38
2018-09-02T18:26:40.064Z,24.35
2018-09-02T18:29:09.762Z,24.30
2018-09-02T18:31:39.195Z,24.33
2018-09-02T18:34:09.343Z,24.40
2018-09-02T18:36:39.539Z,24.42
2018-09-02T18:39:11.420Z,24.26
2018-09-02T18:41:42.098Z,24.38
2018-09-02T18:44:11.693Z,24.52
2018-09-02T18:46:41.402Z,24.40
2018-09-02T18:49:11.088Z,24.28
2018-09-02T18:51:40.664Z,24.39
2018-09-02T18:54:10.200Z,24.11
2018-09-02T18:56:39.623Z,24.33
2018-09-02T18:59:09.362Z,24.36
2018-09-02T19:01:38.862Z,24.21
2018-09-02T19:04:08.673Z,24.40
2018-09-02T19:06:38.370Z,24.22
2018-09-02T19:09:10.288Z,23.99
2018-09-02T19:11:39.841Z,23.86
2018-09-02T19:14:09.196Z,23.93
2018-09-02T19:16:38.660Z,23.68
2018-09-02T19:19:08.089Z,23.69
2018-09-02T19:21:37.725Z,23.68
2018-09-02T19:24:07.646Z,23.55
2018-09-02T19:26:37.338Z,23.63
2018-09-02T19:29:06.936Z,23.79
2018-09-02T19:31:36.664Z,23.63
2018-09-02T19:34:06.138Z,23.55
2018-09-02T19:36:35.732Z,23.66
2018-09-02T19:39:09.476Z,23.57
2018-09-02T19:41:39.276Z,23.60
2018-09-02T19:44:08.980Z,23.71
2018-09-02T19:46:39.037Z,23.61
2018-09-02T19:49:08.612Z,23.64
2018-09-02T19:51:38.315Z,23.62
2018-09-02T19:54:08.474Z,23.71
2018-09-02T19:56:37.927Z,23.75
2018-09-02T19:59:07.349Z,23.87
2018-09-02T20:01:36.820Z,23.86
2018-09-02T20:04:06.378Z,23.66
2018-09-02T20:06:36.554Z,23.58
2018-09-02T20:09:11.485Z,23.62
2018-09-02T20:11:41.142Z,23.88
2018-09-02T20:14:11.067Z,23.34
2018-09-02T20:16:40.776Z,23.44
2018-09-02T20:19:11.279Z,23.36
2018-09-02T20:21:40.754Z,23.38
2018-09-02T20:24:10.443Z,23.14
2018-09-02T20:26:39.937Z,23.50
2018-09-02T20:29:10.307Z,23.46
2018-09-02T20:31:40.415Z,23.40
2018-09-02T20:34:10.077Z,23.50
2018-09-02T20:36:39.986Z,23.40
2018-09-02T20:39:10.391Z,23.42
2018-09-02T20:41:40.084Z,23.37
2018-09-02T20:44:09.685Z,23.45
2018-09-02T20:46:39.216Z,23.48
2018-09-02T20:49:08.862Z,23.21
2018-09-02T20:51:38.459Z,23.36
2018-09-02T20:54:07.967Z,23.46
2018-09-02T20:56:37.362Z,23.34
2018-09-02T20:59:06.776Z,23.38
2018-09-02T21:01:36.307Z,23.15
2018-09-02T21:04:05.792Z,23.09
2018-09-02T21:06:35.320Z,23.14
2018-09-02T21:09:08.334Z,22.98
2018-09-02T21:11:37.862Z,23.19
2018-09-02T21:14:11.602Z,23.25
2018-09-02T21:16:42.355Z,23.24
2018-09-02T21:19:11.844Z,23.19
2018-09-02T21:21:41.363Z,23.22
2018-09-02T21:24:10.796Z,23.06
2018-09-02T21:26:41.156Z,23.24
2018-09-02T21:29:14.528Z,23.05
2018-09-02T21:31:44.568Z,23.27
2018-09-02T21:34:14.675Z,23.16
2018-09-02T21:36:44.825Z,22.97
2018-09-02T21:39:15.538Z,23.12
2018-09-02T21:41:45.004Z,23.03
2018-09-02T21:44:14.417Z,23.11
2018-09-02T21:46:44.169Z,23.04
2018-09-02T21:49:13.490Z,23.10
2018-09-02T21:51:42.822Z,23.10
2018-09-02T21:54:12.315Z,22.96
2018-09-02T21:56:41.785Z,23.04
2018-09-02T21:59:11.390Z,23.07
2018-09-02T22:01:40.759Z,23.18
2018-09-02T22:04:10.779Z,23.06
2018-09-02T22:06:40.076Z,23.05
2018-09-02T22:09:14.673Z,22.77
2018-09-02T22:11:44.717Z,22.66
2018-09-02T22:14:14.803Z,22.59
2018-09-02T22:16:44.860Z,22.34
2018-09-02T22:19:14.403Z,22.40
2018-09-02T22:21:43.732Z,22.60
2018-09-02T22:24:13.163Z,22.67
2018-09-02T22:26:42.630Z,22.40
2018-09-02T22:29:12.043Z,22.48
2018-09-02T22:31:41.620Z,22.56
2018-09-02T22:34:10.968Z,22.68
2018-09-02T22:36:40.359Z,22.68
2018-09-02T22:39:09.797Z,22.55
2018-09-02T22:41:39.119Z,22.69
2018-09-02T22:44:08.511Z,22.71
2018-09-02T22:46:37.842Z,22.68
2018-09-02T22:49:07.211Z,22.71
2018-09-02T22:51:36.751Z,22.55
2018-09-02T22:54:06.263Z,22.71
2018-09-02T22:56:35.622Z,22.60
2018-09-02T22:59:05.150Z,22.56
2018-09-02T23:01:34.643Z,22.49
2018-09-02T23:04:04.055Z,22.36
2018-09-02T23:06:33.423Z,22.13
2018-09-02T23:09:02.882Z,22.30
2018-09-02T23:11:32.286Z,22.26
2018-09-02T23:14:01.620Z,22.35
2018-09-02T23:16:31.508Z,22.34
2018-09-02T23:19:00.805Z,22.30
2018-09-02T23:21:30.295Z,22.30
2018-09-02T23:23:59.743Z,22.09
2018-09-02T23:26:29.087Z,22.06
2018-09-02T23:28:58.365Z,21.94
2018-09-02T23:31:27.686Z,21.88
2018-09-02T23:33:57.037Z,21.81
2018-09-02T23:36:26.621Z,21.95
2018-09-02T23:38:56.012Z,21.84
2018-09-02T23:41:25.562Z,21.81
2018-09-02T23:43:54.940Z,21.81
2018-09-02T23:46:24.498Z,21.94
2018-09-02T23:48:53.848Z,21.85
2018-09-02T23:51:23.232Z,21.90
2018-09-02T23:53:52.606Z,22.06
2018-09-02T23:56:21.974Z,21.82
2018-09-02T23:58:51.299Z,21.97
